PWSweather.com
Personal Weather Stations
Station Observations
KMNGREYC2
Grey Cloud Island, Grey Cloud Island, MN 55071

Grey Cloud IslandGrey Cloud Island, MN 55071

Lat: 44.799333, Lon: -92.987851

Elevation: 700

Station Type: Davis VP2

www.jagielski.com/weather/conditions.htm

High Low Average
Temperature 62.7°F17.1°C 35.1°F1.7°C 49.5°F9.7°C
Dew Point 47.0°F8.3°C 33.8°F1.0°C 40.2°F4.6°C
Winds 4.0 mph 6.4 kmh Calm Calm Calm SSWCalm SSW
Wind Gusts 9.0 mph14.5 kmh -- 3.0 mph4.8 kmh
Humidity 97% 42% 74%
Pressure 30.12 in1020.0 mb 29.97 in1014.9 mb -
Precipitation 0.00 in0.0 mm - -
Hour Temp Dew Point Humidity Winds Wind Gusts Pressure Precip Precip Rate Daily Precip Total
12:00 AM 39.5°F4.2°C 37.9°F3.3°C 94% Calm Calm 5.0 mph8.0 kmh 29.97 in1014.9 mb 0.01 in0.3 mm 0.00 in0.0 mm 0.01 in0.3 mm
12:15 AM 39.4°F4.1°C 37.8°F3.2°C 94% Calm Calm 1.0 mph1.6 kmh 29.98 in1015.2 mb 0.00 in0.0 mm 0.00 in0.0 mm 0.01 in0.3 mm
12:30 AM 39.3°F4.1°C 37.7°F3.2°C 94% Calm Calm 1.0 mph1.6 kmh 29.98 in1015.2 mb 0.00 in0.0 mm 0.00 in0.0 mm 0.01 in0.3 mm
12:45 AM 39.0°F3.9°C 37.4°F3.0°C 94% Calm Calm -- 29.98 in1015.2 mb 0.00 in0.0 mm 0.00 in0.0 mm 0.01 in0.3 mm
01:00 AM 38.7°F3.7°C 36.9°F2.7°C 93% Calm Calm -- 29.99 in1015.6 mb 0.00 in0.0 mm 0.00 in0.0 mm 0.01 in0.3 mm
01:15 AM 38.3°F3.5°C 36.5°F2.5°C 93% Calm Calm -- 29.99 in1015.6 mb 0.00 in0.0 mm 0.00 in0.0 mm 0.01 in0.3 mm
01:30 AM 37.9°F3.3°C 36.1°F2.3°C 93% Calm Calm -- 29.98 in1015.2 mb 0.00 in0.0 mm 0.00 in0.0 mm 0.01 in0.3 mm
01:45 AM 37.6°F3.1°C 35.8°F2.1°C 93% Calm Calm -- 29.98 in1015.2 mb 0.00 in0.0 mm 0.00 in0.0 mm 0.01 in0.3 mm
02:00 AM 37.0°F2.8°C 35.2°F1.8°C 93% 1.0 mph NW1.6 kmh NW 3.0 mph4.8 kmh 29.97 in1014.9 mb 0.00 in0.0 mm 0.00 in0.0 mm 0.01 in0.3 mm
02:15 AM 36.9°F2.7°C 35.3°F1.8°C 94% Calm Calm 5.0 mph8.0 kmh 29.99 in1015.6 mb 0.00 in0.0 mm 0.00 in0.0 mm 0.01 in0.3 mm
02:30 AM 37.1°F2.8°C 35.5°F1.9°C 94% Calm Calm 5.0 mph8.0 kmh 30.00 in1015.9 mb 0.00 in0.0 mm 0.00 in0.0 mm 0.01 in0.3 mm
02:45 AM 37.3°F2.9°C 36.0°F2.2°C 95% Calm Calm -- 30.00 in1015.9 mb 0.00 in0.0 mm 0.00 in0.0 mm 0.01 in0.3 mm
03:00 AM 37.3°F2.9°C 35.7°F2.1°C 94% Calm Calm 3.0 mph4.8 kmh 30.01 in1016.3 mb 0.00 in0.0 mm 0.00 in0.0 mm 0.01 in0.3 mm
03:15 AM 37.0°F2.8°C 35.4°F1.9°C 94% Calm Calm 1.0 mph1.6 kmh 30.00 in1015.9 mb 0.00 in0.0 mm 0.00 in0.0 mm 0.01 in0.3 mm
03:30 AM 36.7°F2.6°C 35.1°F1.7°C 94% Calm Calm 2.0 mph3.2 kmh 30.00 in1015.9 mb 0.00 in0.0 mm 0.00 in0.0 mm 0.01 in0.3 mm
03:45 AM 36.5°F2.5°C 35.2°F1.8°C 95% Calm Calm 2.0 mph3.2 kmh 30.01 in1016.3 mb 0.00 in0.0 mm 0.00 in0.0 mm 0.01 in0.3 mm
04:00 AM 36.4°F2.4°C 34.8°F1.6°C 94% Calm Calm 2.0 mph3.2 kmh 30.02 in1016.6 mb 0.00 in0.0 mm 0.00 in0.0 mm 0.01 in0.3 mm
04:15 AM 36.3°F2.4°C 35.0°F1.7°C 95% Calm Calm 2.0 mph3.2 kmh 30.02 in1016.6 mb 0.00 in0.0 mm 0.00 in0.0 mm 0.01 in0.3 mm
04:30 AM 36.3°F2.4°C 35.0°F1.7°C 95% Calm Calm 2.0 mph3.2 kmh 30.03 in1016.9 mb 0.00 in0.0 mm 0.00 in0.0 mm 0.01 in0.3 mm
04:45 AM 36.1°F2.3°C 34.8°F1.6°C 95% Calm Calm -- 30.03 in1016.9 mb 0.00 in0.0 mm 0.00 in0.0 mm 0.01 in0.3 mm
05:00 AM 35.7°F2.1°C 34.2°F1.2°C 94% Calm Calm 1.0 mph1.6 kmh 30.02 in1016.6 mb 0.00 in0.0 mm 0.00 in0.0 mm 0.01 in0.3 mm
05:15 AM 35.3°F1.8°C 33.8°F1.0°C 94% Calm Calm -- 30.03 in1016.9 mb 0.00 in0.0 mm 0.00 in0.0 mm 0.01 in0.3 mm
05:30 AM 35.1°F1.7°C 33.8°F1.0°C 95% Calm Calm 1.0 mph1.6 kmh 30.04 in1017.3 mb 0.00 in0.0 mm 0.00 in0.0 mm 0.01 in0.3 mm
05:45 AM 35.1°F1.7°C 33.8°F1.0°C 95% Calm Calm 1.0 mph1.6 kmh 30.04 in1017.3 mb 0.00 in0.0 mm 0.00 in0.0 mm 0.01 in0.3 mm
06:00 AM 35.3°F1.8°C 34.0°F1.1°C 95% Calm Calm 2.0 mph3.2 kmh 30.05 in1017.6 mb 0.00 in0.0 mm 0.00 in0.0 mm 0.01 in0.3 mm
06:15 AM 35.5°F1.9°C 34.2°F1.2°C 95% Calm Calm 1.0 mph1.6 kmh 30.05 in1017.6 mb 0.00 in0.0 mm 0.00 in0.0 mm 0.01 in0.3 mm
06:30 AM 35.9°F2.2°C 34.9°F1.6°C 96% Calm Calm 4.0 mph6.4 kmh 30.05 in1017.6 mb 0.00 in0.0 mm 0.00 in0.0 mm 0.01 in0.3 mm
06:45 AM 36.1°F2.3°C 35.1°F1.7°C 96% Calm Calm 2.0 mph3.2 kmh 30.07 in1018.3 mb 0.00 in0.0 mm 0.00 in0.0 mm 0.01 in0.3 mm
07:00 AM 36.6°F2.6°C 35.6°F2.0°C 96% 1.0 mph WNW1.6 kmh WNW 4.0 mph6.4 kmh 30.08 in1018.6 mb 0.00 in0.0 mm 0.00 in0.0 mm 0.01 in0.3 mm
07:15 AM 37.4°F3.0°C 36.4°F2.4°C 96% Calm Calm 3.0 mph4.8 kmh 30.09 in1019.0 mb 0.00 in0.0 mm 0.00 in0.0 mm 0.01 in0.3 mm
07:30 AM 38.1°F3.4°C 37.1°F2.8°C 96% Calm Calm 4.0 mph6.4 kmh 30.10 in1019.3 mb 0.00 in0.0 mm 0.00 in0.0 mm 0.01 in0.3 mm
07:45 AM 39.0°F3.9°C 38.2°F3.4°C 97% Calm Calm 4.0 mph6.4 kmh 30.10 in1019.3 mb 0.00 in0.0 mm 0.00 in0.0 mm 0.01 in0.3 mm
08:00 AM 40.1°F4.5°C 39.3°F4.1°C 97% 1.0 mph WNW1.6 kmh WNW 6.0 mph9.7 kmh 30.10 in1019.3 mb 0.00 in0.0 mm 0.00 in0.0 mm 0.01 in0.3 mm
08:15 AM 40.9°F4.9°C 40.1°F4.5°C 97% Calm Calm 7.0 mph11.3 kmh 30.10 in1019.3 mb 0.00 in0.0 mm 0.00 in0.0 mm 0.01 in0.3 mm
08:30 AM 41.7°F5.4°C 40.9°F4.9°C 97% 2.0 mph WNW3.2 kmh WNW 7.0 mph11.3 kmh 30.10 in1019.3 mb 0.00 in0.0 mm 0.00 in0.0 mm 0.01 in0.3 mm
08:45 AM 42.5°F5.8°C 41.7°F5.4°C 97% 4.0 mph NE6.4 kmh NE 7.0 mph11.3 kmh 30.10 in1019.3 mb 0.00 in0.0 mm 0.00 in0.0 mm 0.01 in0.3 mm
09:00 AM 43.3°F6.3°C 42.5°F5.8°C 97% 1.0 mph ENE1.6 kmh ENE 7.0 mph11.3 kmh 30.10 in1019.3 mb 0.00 in0.0 mm 0.00 in0.0 mm 0.01 in0.3 mm
09:15 AM 44.0°F6.7°C 42.9°F6.1°C 96% 2.0 mph WNW3.2 kmh WNW 5.0 mph8.0 kmh 30.10 in1019.3 mb 0.01 in0.3 mm 0.04 in1.0 mm 0.02 in0.5 mm
09:30 AM 44.9°F7.2°C 43.3°F6.3°C 94% 1.0 mph NW1.6 kmh NW 5.0 mph8.0 kmh 30.10 in1019.3 mb 0.01 in0.3 mm 0.00 in0.0 mm 0.02 in0.5 mm
09:45 AM 46.0°F7.8°C 43.5°F6.4°C 91% 1.0 mph NW1.6 kmh NW 7.0 mph11.3 kmh 30.10 in1019.3 mb 0.01 in0.3 mm 0.00 in0.0 mm 0.02 in0.5 mm
10:00 AM 47.3°F8.5°C 43.0°F6.1°C 85% Calm Calm 7.0 mph11.3 kmh 30.10 in1019.3 mb 0.01 in0.3 mm 0.00 in0.0 mm 0.02 in0.5 mm
10:15 AM 48.4°F9.1°C 42.9°F6.1°C 81% 1.0 mph NW1.6 kmh NW 5.0 mph8.0 kmh 30.10 in1019.3 mb 0.01 in0.3 mm 0.00 in0.0 mm 0.02 in0.5 mm
10:30 AM 49.6°F9.8°C 42.7°F5.9°C 77% Calm Calm 5.0 mph8.0 kmh 30.08 in1018.6 mb 0.01 in0.3 mm 0.00 in0.0 mm 0.02 in0.5 mm
10:45 AM 51.0°F10.6°C 41.9°F5.5°C 71% Calm Calm 5.0 mph8.0 kmh 30.07 in1018.3 mb 0.00 in0.0 mm 0.00 in0.0 mm 0.02 in0.5 mm
11:00 AM 52.3°F11.3°C 43.2°F6.2°C 71% 1.0 mph E1.6 kmh E 7.0 mph11.3 kmh 30.08 in1018.6 mb 0.00 in0.0 mm 0.00 in0.0 mm 0.02 in0.5 mm
11:15 AM 53.6°F12.0°C 40.9°F4.9°C 62% 1.0 mph NNE1.6 kmh NNE 5.0 mph8.0 kmh 30.10 in1019.3 mb 0.00 in0.0 mm 0.00 in0.0 mm 0.02 in0.5 mm
11:30 AM 54.8°F12.7°C 40.3°F4.6°C 58% 1.0 mph SE1.6 kmh SE 6.0 mph9.7 kmh 30.11 in1019.6 mb 0.00 in0.0 mm 0.00 in0.0 mm 0.02 in0.5 mm
11:45 AM 55.8°F13.2°C 41.3°F5.2°C 58% 3.0 mph ENE4.8 kmh ENE 5.0 mph8.0 kmh 30.12 in1020.0 mb 0.00 in0.0 mm 0.00 in0.0 mm 0.02 in0.5 mm
12:00 PM 57.0°F13.9°C 42.4°F5.8°C 58% Calm Calm 6.0 mph9.7 kmh 30.12 in1020.0 mb 0.00 in0.0 mm 0.00 in0.0 mm 0.02 in0.5 mm
12:15 PM 57.9°F14.4°C 41.4°F5.2°C 54% 1.0 mph NNW1.6 kmh NNW 3.0 mph4.8 kmh 30.12 in1020.0 mb 0.00 in0.0 mm 0.00 in0.0 mm 0.02 in0.5 mm
12:30 PM 58.8°F14.9°C 39.7°F4.3°C 49% 1.0 mph NE1.6 kmh NE 6.0 mph9.7 kmh 30.11 in1019.6 mb 0.00 in0.0 mm 0.00 in0.0 mm 0.02 in0.5 mm
12:45 PM 60.0°F15.6°C 40.8°F4.9°C 49% Calm Calm 6.0 mph9.7 kmh 30.11 in1019.6 mb 0.00 in0.0 mm 0.00 in0.0 mm 0.02 in0.5 mm
01:00 PM 60.2°F15.7°C 39.4°F4.1°C 46% Calm Calm 6.0 mph9.7 kmh 30.11 in1019.6 mb 0.00 in0.0 mm 0.00 in0.0 mm 0.02 in0.5 mm
01:15 PM 60.3°F15.7°C 39.5°F4.2°C 46% Calm Calm 7.0 mph11.3 kmh 30.11 in1019.6 mb 0.00 in0.0 mm 0.00 in0.0 mm 0.02 in0.5 mm
01:30 PM 60.5°F15.8°C 39.6°F4.2°C 46% 1.0 mph NW1.6 kmh NW 9.0 mph14.5 kmh 30.10 in1019.3 mb 0.00 in0.0 mm 0.00 in0.0 mm 0.02 in0.5 mm
01:45 PM 60.8°F16.0°C 39.9°F4.4°C 46% 4.0 mph NW6.4 kmh NW 6.0 mph9.7 kmh 30.08 in1018.6 mb 0.00 in0.0 mm 0.00 in0.0 mm 0.02 in0.5 mm
02:00 PM 61.3°F16.3°C 39.8°F4.3°C 45% 4.0 mph NE6.4 kmh NE 9.0 mph14.5 kmh 30.08 in1018.6 mb 0.00 in0.0 mm 0.00 in0.0 mm 0.02 in0.5 mm
02:15 PM 62.0°F16.7°C 41.0°F5.0°C 46% Calm Calm 9.0 mph14.5 kmh 30.08 in1018.6 mb 0.00 in0.0 mm 0.00 in0.0 mm 0.02 in0.5 mm
02:30 PM 62.4°F16.9°C 39.6°F4.2°C 43% 4.0 mph N6.4 kmh N 9.0 mph14.5 kmh 30.07 in1018.3 mb 0.00 in0.0 mm 0.00 in0.0 mm 0.02 in0.5 mm
02:45 PM 62.6°F17.0°C 39.8°F4.3°C 43% 1.0 mph NW1.6 kmh NW 5.0 mph8.0 kmh 30.08 in1018.6 mb 0.00 in0.0 mm 0.00 in0.0 mm 0.02 in0.5 mm
03:00 PM 62.7°F17.1°C 39.3°F4.1°C 42% 2.0 mph NNW3.2 kmh NNW 9.0 mph14.5 kmh 30.08 in1018.6 mb 0.00 in0.0 mm 0.00 in0.0 mm 0.02 in0.5 mm
03:15 PM 62.6°F17.0°C 42.1°F5.6°C 47% 2.0 mph WNW3.2 kmh WNW 6.0 mph9.7 kmh 30.08 in1018.6 mb 0.00 in0.0 mm 0.00 in0.0 mm 0.02 in0.5 mm
03:30 PM 62.7°F17.1°C 39.9°F4.4°C 43% 1.0 mph E1.6 kmh E 7.0 mph11.3 kmh 30.07 in1018.3 mb 0.01 in0.3 mm 0.04 in1.0 mm 0.03 in0.8 mm
03:45 PM 62.5°F16.9°C 40.3°F4.6°C 44% Calm Calm 6.0 mph9.7 kmh 30.07 in1018.3 mb 0.01 in0.3 mm 0.00 in0.0 mm 0.03 in0.8 mm
04:00 PM 62.3°F16.8°C 39.5°F4.2°C 43% 2.0 mph E3.2 kmh E 7.0 mph11.3 kmh 30.08 in1018.6 mb 0.01 in0.3 mm 0.00 in0.0 mm 0.03 in0.8 mm
04:15 PM 62.0°F16.7°C 40.4°F4.7°C 45% Calm Calm 4.0 mph6.4 kmh 30.08 in1018.6 mb 0.01 in0.3 mm 0.00 in0.0 mm 0.03 in0.8 mm
04:30 PM 62.0°F16.7°C 41.0°F5.0°C 46% Calm Calm 7.0 mph11.3 kmh 30.07 in1018.3 mb 0.01 in0.3 mm 0.00 in0.0 mm 0.03 in0.8 mm
04:45 PM 61.9°F16.6°C 40.4°F4.7°C 45% Calm Calm 7.0 mph11.3 kmh 30.07 in1018.3 mb 0.00 in0.0 mm 0.00 in0.0 mm 0.03 in0.8 mm
05:00 PM 61.7°F16.5°C 40.7°F4.8°C 46% Calm Calm 7.0 mph11.3 kmh 30.07 in1018.3 mb 0.00 in0.0 mm 0.00 in0.0 mm 0.03 in0.8 mm
05:15 PM 61.7°F16.5°C 41.3°F5.2°C 47% 2.0 mph ENE3.2 kmh ENE 6.0 mph9.7 kmh 30.07 in1018.3 mb 0.00 in0.0 mm 0.00 in0.0 mm 0.03 in0.8 mm
05:30 PM 61.6°F16.4°C 40.6°F4.8°C 46% Calm Calm 6.0 mph9.7 kmh 30.07 in1018.3 mb 0.00 in0.0 mm 0.00 in0.0 mm 0.03 in0.8 mm
05:45 PM 61.6°F16.4°C 40.6°F4.8°C 46% Calm Calm 2.0 mph3.2 kmh 30.08 in1018.6 mb 0.00 in0.0 mm 0.00 in0.0 mm 0.03 in0.8 mm
06:00 PM 61.4°F16.3°C 41.0°F5.0°C 47% Calm Calm 2.0 mph3.2 kmh 30.08 in1018.6 mb 0.00 in0.0 mm 0.00 in0.0 mm 0.03 in0.8 mm
06:15 PM 61.1°F16.2°C 41.8°F5.4°C 49% Calm Calm 5.0 mph8.0 kmh 30.08 in1018.6 mb 0.00 in0.0 mm 0.00 in0.0 mm 0.03 in0.8 mm
06:30 PM 60.9°F16.1°C 42.7°F5.9°C 51% Calm Calm 5.0 mph8.0 kmh 30.08 in1018.6 mb 0.00 in0.0 mm 0.00 in0.0 mm 0.03 in0.8 mm
06:45 PM 60.6°F15.9°C 41.9°F5.5°C 50% Calm Calm 2.0 mph3.2 kmh 30.07 in1018.3 mb 0.00 in0.0 mm 0.00 in0.0 mm 0.03 in0.8 mm
07:00 PM 60.4°F15.8°C 41.7°F5.4°C 50% Calm Calm 3.0 mph4.8 kmh 30.07 in1018.3 mb 0.00 in0.0 mm 0.00 in0.0 mm 0.03 in0.8 mm
07:15 PM 60.2°F15.7°C 41.5°F5.3°C 50% Calm Calm 1.0 mph1.6 kmh 30.07 in1018.3 mb 0.00 in0.0 mm 0.00 in0.0 mm 0.03 in0.8 mm
07:30 PM 60.0°F15.6°C 43.3°F6.3°C 54% Calm Calm 1.0 mph1.6 kmh 30.06 in1017.9 mb 0.00 in0.0 mm 0.00 in0.0 mm 0.03 in0.8 mm
07:45 PM 59.6°F15.3°C 45.7°F7.6°C 60% Calm Calm -- 30.06 in1017.9 mb 0.00 in0.0 mm 0.00 in0.0 mm 0.03 in0.8 mm
08:00 PM 59.1°F15.1°C 47.0°F8.3°C 64% Calm Calm -- 30.06 in1017.9 mb 0.00 in0.0 mm 0.00 in0.0 mm 0.03 in0.8 mm
08:15 PM 58.2°F14.6°C 46.1°F7.8°C 64% Calm Calm -- 30.05 in1017.6 mb 0.00 in0.0 mm 0.00 in0.0 mm 0.03 in0.8 mm
08:30 PM 57.2°F14.0°C 46.4°F8.0°C 67% Calm Calm -- 30.06 in1017.9 mb 0.00 in0.0 mm 0.00 in0.0 mm 0.03 in0.8 mm
08:45 PM 55.9°F13.3°C 45.9°F7.7°C 69% Calm Calm -- 30.05 in1017.6 mb 0.00 in0.0 mm 0.00 in0.0 mm 0.03 in0.8 mm
09:00 PM 54.5°F12.5°C 45.7°F7.6°C 72% Calm Calm -- 30.04 in1017.3 mb 0.00 in0.0 mm 0.00 in0.0 mm 0.03 in0.8 mm
09:15 PM 53.4°F11.9°C 45.3°F7.4°C 74% Calm Calm -- 30.04 in1017.3 mb 0.00 in0.0 mm 0.00 in0.0 mm 0.03 in0.8 mm
09:30 PM 52.3°F11.3°C 45.3°F7.4°C 77% Calm Calm -- 30.04 in1017.3 mb 0.00 in0.0 mm 0.00 in0.0 mm 0.03 in0.8 mm
09:45 PM 51.6°F10.9°C 45.3°F7.4°C 79% Calm Calm -- 30.04 in1017.3 mb 0.00 in0.0 mm 0.00 in0.0 mm 0.03 in0.8 mm
10:00 PM 50.9°F10.5°C 45.0°F7.2°C 80% Calm Calm -- 30.05 in1017.6 mb 0.00 in0.0 mm 0.00 in0.0 mm 0.03 in0.8 mm
10:15 PM 50.2°F10.1°C 44.9°F7.2°C 82% Calm Calm -- 30.05 in1017.6 mb 0.00 in0.0 mm 0.00 in0.0 mm 0.03 in0.8 mm
10:30 PM 49.4°F9.7°C 44.1°F6.7°C 82% Calm Calm -- 30.06 in1017.9 mb 0.00 in0.0 mm 0.00 in0.0 mm 0.03 in0.8 mm
10:45 PM 48.8°F9.3°C 43.9°F6.6°C 83% Calm Calm -- 30.06 in1017.9 mb 0.00 in0.0 mm 0.00 in0.0 mm 0.03 in0.8 mm
11:00 PM 48.4°F9.1°C 43.8°F6.6°C 84% Calm Calm -- 30.06 in1017.9 mb 0.00 in0.0 mm 0.00 in0.0 mm 0.03 in0.8 mm
11:15 PM 48.0°F8.9°C 43.7°F6.5°C 85% Calm Calm -- 30.06 in1017.9 mb 0.00 in0.0 mm 0.00 in0.0 mm 0.03 in0.8 mm
11:30 PM 47.6°F8.7°C 43.3°F6.3°C 85% Calm Calm -- 30.05 in1017.6 mb 0.00 in0.0 mm 0.00 in0.0 mm 0.03 in0.8 mm
11:45 PM 47.2°F8.4°C 42.9°F6.1°C 85% Calm Calm -- 30.04 in1017.3 mb 0.00 in0.0 mm 0.00 in0.0 mm 0.03 in0.8 mm